createdAt,value
2019-02-10T00:00:59.638Z,5.73
2019-02-10T00:03:27.831Z,7.00
2019-02-10T00:05:56.052Z,6.17
2019-02-10T00:08:24.318Z,6.10
2019-02-10T00:10:52.605Z,8.10
2019-02-10T00:13:25.272Z,6.40
2019-02-10T00:15:55.917Z,5.10
2019-02-10T00:18:26.169Z,5.87
2019-02-10T00:20:54.941Z,5.30
2019-02-10T00:23:23.205Z,6.07
2019-02-10T00:25:51.441Z,5.67
2019-02-10T00:28:19.710Z,5.67
2019-02-10T00:30:47.906Z,5.47
2019-02-10T00:33:16.310Z,5.87
2019-02-10T00:35:45.610Z,5.20
2019-02-10T00:38:14.099Z,5.50
2019-02-10T00:40:42.630Z,5.10
2019-02-10T00:43:10.914Z,6.50
2019-02-10T00:45:39.101Z,5.80
2019-02-10T00:48:07.793Z,5.37
2019-02-10T00:50:35.982Z,5.30
2019-02-10T00:53:06.136Z,6.37
2019-02-10T00:55:34.770Z,5.40
2019-02-10T00:58:03.070Z,5.97
2019-02-10T01:00:32.602Z,5.30
2019-02-10T01:03:00.944Z,6.10
2019-02-10T01:05:29.476Z,5.77
2019-02-10T01:07:58.816Z,6.57
2019-02-10T01:10:27.898Z,5.27
2019-02-10T01:12:56.963Z,5.67
2019-02-10T01:15:26.668Z,5.43
2019-02-10T01:17:55.146Z,5.57
2019-02-10T01:20:23.738Z,5.73
2019-02-10T01:22:53.014Z,5.40
2019-02-10T01:25:21.460Z,5.10
2019-02-10T01:27:51.650Z,5.03
2019-02-10T01:30:20.469Z,5.20
2019-02-10T01:32:48.689Z,5.30
2019-02-10T01:35:17.206Z,5.70
2019-02-10T01:37:47.173Z,5.63
2019-02-10T01:40:15.678Z,6.47
2019-02-10T01:42:43.874Z,5.50
2019-02-10T01:45:12.698Z,4.63
2019-02-10T01:47:40.964Z,5.10
2019-02-10T01:50:12.361Z,5.23
2019-02-10T01:52:40.661Z,5.77
2019-02-10T01:55:10.693Z,5.27
2019-02-10T01:57:39.474Z,4.90
2019-02-10T02:00:10.906Z,4.73
2019-02-10T02:02:39.175Z,5.27
2019-02-10T02:05:08.000Z,4.30
2019-02-10T02:07:36.329Z,5.00
2019-02-10T02:10:05.613Z,5.33
2019-02-10T02:12:35.221Z,5.40
2019-02-10T02:15:05.278Z,4.07
2019-02-10T02:17:34.803Z,4.80
2019-02-10T02:20:03.734Z,5.60
2019-02-10T02:22:32.573Z,5.10
2019-02-10T02:25:00.860Z,6.30
2019-02-10T02:27:30.529Z,6.33
2019-02-10T02:29:59.518Z,5.37
2019-02-10T02:32:27.809Z,5.80
2019-02-10T02:34:58.990Z,5.80
2019-02-10T02:37:28.049Z,5.87
2019-02-10T02:39:56.314Z,5.00
2019-02-10T02:42:24.872Z,5.20
2019-02-10T02:44:54.198Z,5.50
2019-02-10T02:47:22.686Z,5.40
2019-02-10T02:49:51.424Z,5.47
2019-02-10T02:52:21.767Z,6.53
2019-02-10T02:54:52.479Z,6.37
2019-02-10T02:57:20.749Z,5.30
2019-02-10T02:59:51.029Z,4.90
2019-02-10T03:02:19.219Z,4.80
2019-02-10T03:04:47.774Z,4.87
2019-02-10T03:07:18.444Z,4.80
2019-02-10T03:09:48.571Z,4.70
2019-02-10T03:12:17.634Z,5.23
2019-02-10T03:14:46.208Z,5.10
2019-02-10T03:17:14.457Z,5.60
2019-02-10T03:19:42.717Z,5.23
2019-02-10T03:22:11.266Z,4.70
2019-02-10T03:24:39.535Z,5.13
2019-02-10T03:27:08.738Z,5.30
2019-02-10T03:29:37.240Z,4.87
2019-02-10T03:32:05.559Z,5.20
2019-02-10T03:34:34.802Z,4.73
2019-02-10T03:37:03.254Z,7.50
2019-02-10T03:39:31.514Z,5.50
2019-02-10T03:41:59.805Z,5.10
2019-02-10T03:44:28.861Z,5.33
2019-02-10T03:46:59.353Z,5.80
2019-02-10T03:49:29.185Z,5.83
2019-02-10T03:51:57.969Z,6.00
2019-02-10T03:54:26.335Z,5.80
2019-02-10T03:56:54.522Z,5.43
2019-02-10T03:59:22.810Z,5.00
2019-02-10T04:01:51.074Z,5.40
2019-02-10T04:04:19.286Z,5.37
2019-02-10T04:06:47.551Z,5.70
2019-02-10T04:09:15.850Z,5.73
2019-02-10T04:11:44.110Z,6.10
2019-02-10T04:14:15.163Z,4.50
2019-02-10T04:16:43.439Z,4.80
2019-02-10T04:19:12.943Z,5.03
2019-02-10T04:21:42.543Z,4.67
2019-02-10T04:24:11.099Z,3.93
2019-02-10T04:26:40.702Z,4.17
2019-02-10T04:29:08.991Z,4.23
2019-02-10T04:31:37.514Z,4.83
2019-02-10T04:34:07.233Z,5.20
2019-02-10T04:36:37.553Z,5.20
2019-02-10T04:39:06.138Z,4.13
2019-02-10T04:41:36.058Z,4.70
2019-02-10T04:44:04.318Z,4.87
2019-02-10T04:46:33.632Z,4.70
2019-02-10T04:49:03.027Z,5.30
2019-02-10T04:51:33.248Z,4.90
2019-02-10T04:54:01.505Z,4.97
2019-02-10T04:56:29.897Z,4.60
2019-02-10T04:58:58.161Z,4.30
2019-02-10T05:01:26.418Z,4.93
2019-02-10T05:03:56.440Z,4.30
2019-02-10T05:06:25.042Z,3.57
2019-02-10T05:08:56.030Z,4.00
2019-02-10T05:11:24.619Z,3.20
2019-02-10T05:13:54.938Z,2.77
2019-02-10T05:16:24.550Z,3.40
2019-02-10T05:18:55.246Z,4.27
2019-02-10T05:21:24.973Z,4.37
2019-02-10T05:24:03.241Z,3.50
2019-02-10T05:26:26.578Z,4.07
2019-02-10T05:28:58.076Z,4.10
2019-02-10T05:31:26.331Z,3.70
2019-02-10T05:33:54.864Z,3.20
2019-02-10T05:36:23.150Z,1.80
2019-02-10T05:38:52.679Z,2.50
2019-02-10T05:41:22.227Z,2.40
2019-02-10T05:43:52.604Z,1.90
2019-02-10T05:46:22.370Z,2.70
2019-02-10T05:48:50.879Z,2.53
2019-02-10T05:51:19.162Z,2.30
2019-02-10T05:53:47.767Z,2.20
2019-02-10T05:56:16.799Z,2.20
2019-02-10T05:58:47.038Z,2.37
2019-02-10T06:01:36.222Z,2.43
2019-02-10T06:04:06.254Z,2.53
2019-02-10T06:06:35.546Z,2.23
2019-02-10T06:09:08.368Z,2.60
2019-02-10T06:11:36.624Z,3.03
2019-02-10T06:14:05.467Z,3.17
2019-02-10T06:16:33.651Z,3.30
2019-02-10T06:19:03.224Z,3.20
2019-02-10T06:21:32.993Z,3.00
2019-02-10T06:24:01.286Z,2.90
2019-02-10T06:26:31.090Z,1.80
2019-02-10T06:29:00.383Z,1.97
2019-02-10T06:31:29.546Z,1.70
2019-02-10T06:33:58.191Z,2.30
2019-02-10T06:36:26.719Z,2.10
2019-02-10T06:38:56.882Z,1.60
2019-02-10T06:41:26.710Z,1.73
2019-02-10T06:43:57.982Z,2.13
2019-02-10T06:46:26.972Z,2.00
2019-02-10T06:48:58.819Z,2.33
2019-02-10T06:51:27.378Z,1.80
2019-02-10T06:53:57.186Z,2.30
2019-02-10T06:56:27.362Z,2.60
2019-02-10T06:58:55.626Z,2.27
2019-02-10T07:01:33.442Z,2.13
2019-02-10T07:04:04.712Z,2.43
2019-02-10T07:06:33.858Z,2.50
2019-02-10T07:09:02.122Z,2.77
2019-02-10T07:11:31.949Z,2.10
2019-02-10T07:14:01.346Z,2.27
2019-02-10T07:16:42.637Z,2.40
2019-02-10T07:19:25.509Z,2.13
2019-02-10T07:21:54.817Z,2.30
2019-02-10T07:24:39.942Z,2.20
2019-02-10T07:27:14.006Z,2.17
2019-02-10T07:29:47.293Z,2.83
2019-02-10T07:32:17.130Z,1.90
2019-02-10T07:34:57.473Z,1.60
2019-02-10T07:37:34.290Z,1.90
2019-02-10T07:40:18.096Z,1.60
2019-02-10T07:42:48.150Z,2.50
2019-02-10T07:45:21.502Z,3.00
2019-02-10T07:47:54.683Z,3.20
2019-02-10T07:50:38.379Z,2.17
2019-02-10T07:53:24.090Z,1.77
2019-02-10T07:56:14.034Z,1.70
2019-02-10T07:58:57.498Z,2.03
2019-02-10T08:01:32.885Z,1.87
2019-02-10T08:04:06.147Z,1.70
2019-02-10T08:06:35.929Z,1.60
2019-02-10T08:09:20.598Z,1.40
2019-02-10T08:11:53.021Z,1.63
2019-02-10T08:14:22.826Z,1.23
2019-02-10T08:16:55.727Z,1.33
2019-02-10T08:19:28.454Z,1.70
2019-02-10T08:22:13.639Z,1.60
2019-02-10T08:24:55.230Z,1.30
2019-02-10T08:27:41.390Z,1.70
2019-02-10T08:30:16.903Z,1.93
2019-02-10T08:33:03.327Z,2.30
2019-02-10T08:35:49.633Z,2.50
2019-02-10T08:38:25.404Z,2.10
2019-02-10T08:41:00.926Z,1.57
2019-02-10T08:43:30.753Z,1.43
2019-02-10T08:46:00.552Z,1.37
2019-02-10T08:48:33.052Z,1.40
2019-02-10T08:51:02.784Z,1.47
2019-02-10T08:53:31.061Z,1.40
2019-02-10T08:55:59.323Z,1.50
2019-02-10T08:58:27.607Z,1.40
2019-02-10T09:00:55.790Z,1.30
2019-02-10T09:03:24.083Z,1.47
2019-02-10T09:05:52.342Z,2.03
2019-02-10T09:08:20.637Z,1.50
2019-02-10T09:10:48.897Z,1.60
2019-02-10T09:13:17.182Z,1.97
2019-02-10T09:15:45.442Z,1.80
2019-02-10T09:18:13.725Z,1.97
2019-02-10T09:20:41.993Z,1.40
2019-02-10T09:23:10.283Z,1.97
2019-02-10T09:25:38.543Z,1.30
2019-02-10T09:28:06.825Z,1.77
2019-02-10T09:30:35.009Z,1.53
2019-02-10T09:33:03.248Z,1.70
2019-02-10T09:35:31.512Z,2.10
2019-02-10T09:37:59.774Z,1.60
2019-02-10T09:40:28.065Z,1.77
2019-02-10T09:42:56.251Z,1.60
2019-02-10T09:45:24.608Z,1.53
2019-02-10T09:47:52.865Z,1.40
2019-02-10T09:50:21.224Z,1.33
2019-02-10T09:52:49.490Z,1.17
2019-02-10T09:55:17.782Z,1.30
2019-02-10T09:57:46.046Z,1.33
2019-02-10T10:00:14.693Z,1.23
2019-02-10T10:02:42.984Z,1.30
2019-02-10T10:05:12.375Z,1.67
2019-02-10T10:07:40.662Z,1.43
2019-02-10T10:10:10.098Z,2.07
2019-02-10T10:12:38.387Z,1.70
2019-02-10T10:15:10.642Z,1.63
2019-02-10T10:17:38.937Z,1.67
2019-02-10T10:20:08.969Z,2.10
2019-02-10T10:22:37.186Z,1.60
2019-02-10T10:25:06.150Z,1.60
2019-02-10T10:27:34.460Z,2.33
2019-02-10T10:30:02.878Z,4.33
2019-02-10T10:32:31.174Z,2.80
2019-02-10T10:34:59.434Z,2.30
2019-02-10T10:37:27.737Z,2.23
2019-02-10T10:39:56.000Z,1.83
2019-02-10T10:42:24.291Z,1.60
2019-02-10T10:44:52.562Z,1.40
2019-02-10T10:47:20.961Z,1.60
2019-02-10T10:49:50.270Z,1.63
2019-02-10T10:52:21.466Z,1.60
2019-02-10T10:54:50.095Z,1.77
2019-02-10T10:57:25.128Z,1.67
2019-02-10T10:59:55.026Z,2.00
2019-02-10T11:02:23.558Z,1.80
2019-02-10T11:04:52.091Z,1.37
2019-02-10T11:07:21.890Z,1.83
2019-02-10T11:09:50.177Z,1.67
2019-02-10T11:12:18.377Z,1.70
2019-02-10T11:14:46.658Z,1.50
2019-02-10T11:17:14.994Z,1.70
2019-02-10T11:19:43.205Z,1.50
2019-02-10T11:22:11.469Z,1.70
2019-02-10T11:24:39.686Z,2.30
2019-02-10T11:27:07.879Z,1.93
2019-02-10T11:29:36.171Z,1.77
2019-02-10T11:32:04.434Z,1.40
2019-02-10T11:34:32.722Z,1.70
2019-02-10T11:37:00.909Z,1.27
2019-02-10T11:39:29.197Z,1.40
2019-02-10T11:41:57.381Z,1.60
2019-02-10T11:44:25.574Z,2.00
2019-02-10T11:46:53.858Z,1.20
2019-02-10T11:49:22.117Z,1.83
2019-02-10T11:51:50.334Z,2.03
2019-02-10T11:54:18.596Z,1.47
2019-02-10T11:56:46.892Z,1.50
2019-02-10T11:59:15.145Z,2.20
2019-02-10T12:01:43.357Z,1.60
2019-02-10T12:04:11.550Z,1.63
2019-02-10T12:06:39.774Z,1.40
2019-02-10T12:09:08.058Z,1.10
2019-02-10T12:11:36.351Z,1.30
2019-02-10T12:14:04.613Z,1.60
2019-02-10T12:16:32.901Z,1.60
2019-02-10T12:19:01.162Z,1.70
2019-02-10T12:21:29.457Z,1.63
2019-02-10T12:23:57.866Z,1.33
2019-02-10T12:26:57.791Z,1.27
2019-02-10T12:29:21.866Z,1.53
2019-02-10T12:31:50.086Z,1.33
2019-02-10T12:34:18.346Z,1.67
2019-02-10T12:36:46.602Z,1.80
2019-02-10T12:39:14.863Z,1.77
2019-02-10T12:41:45.856Z,8.03
2019-02-10T12:44:14.137Z,1.27
2019-02-10T12:46:42.326Z,2.17
2019-02-10T12:49:10.618Z,1.30
2019-02-10T12:51:38.881Z,8.97
2019-02-10T12:54:07.094Z,1.40
2019-02-10T12:56:35.362Z,1.37
2019-02-10T12:59:03.658Z,1.50
2019-02-10T13:01:31.926Z,2.50
2019-02-10T13:04:00.138Z,1.53
2019-02-10T13:06:28.402Z,1.40
2019-02-10T13:08:56.690Z,1.10
2019-02-10T13:11:24.953Z,1.57
2019-02-10T13:13:53.171Z,1.10
2019-02-10T13:16:21.434Z,1.20
2019-02-10T13:18:49.723Z,2.77
2019-02-10T13:21:17.989Z,1.40
2019-02-10T13:23:46.281Z,1.20
2019-02-10T13:26:14.551Z,1.20
2019-02-10T13:28:42.813Z,1.13
2019-02-10T13:31:11.026Z,1.00
2019-02-10T13:33:39.294Z,1.00
2019-02-10T13:36:07.585Z,1.40
2019-02-10T13:38:35.846Z,1.20
2019-02-10T13:41:04.054Z,1.20
2019-02-10T13:43:33.534Z,1.50
2019-02-10T13:46:02.038Z,1.20
2019-02-10T13:48:30.305Z,1.67
2019-02-10T13:50:58.653Z,1.60
2019-02-10T13:53:26.867Z,1.47
2019-02-10T13:55:55.226Z,1.30
2019-02-10T13:58:23.414Z,1.57
2019-02-10T14:00:51.714Z,1.40
2019-02-10T14:03:19.902Z,1.43
2019-02-10T14:05:48.166Z,1.30
2019-02-10T14:08:16.379Z,1.43
2019-02-10T14:10:44.646Z,1.37
2019-02-10T14:13:12.934Z,1.50
2019-02-10T14:15:41.199Z,1.40
2019-02-10T14:18:09.487Z,1.40
2019-02-10T14:20:37.752Z,1.40
2019-02-10T14:23:06.058Z,4.10
2019-02-10T14:25:34.393Z,1.70
2019-02-10T14:28:02.578Z,1.70
2019-02-10T14:30:30.866Z,1.60
2019-02-10T14:32:59.130Z,1.47
2019-02-10T14:35:27.422Z,1.30
2019-02-10T14:37:55.681Z,1.50
2019-02-10T14:40:23.899Z,1.70
2019-02-10T14:42:52.162Z,1.27
2019-02-10T14:45:20.384Z,1.70
2019-02-10T14:47:48.645Z,1.50
2019-02-10T14:50:17.518Z,1.50
2019-02-10T14:52:45.722Z,1.83
2019-02-10T14:55:13.997Z,1.77
2019-02-10T14:57:42.275Z,2.00
2019-02-10T15:00:11.685Z,1.43
2019-02-10T15:02:39.898Z,1.80
2019-02-10T15:05:08.253Z,2.30
2019-02-10T15:07:36.469Z,1.60
2019-02-10T15:10:06.374Z,2.30
2019-02-10T15:12:35.037Z,1.33
2019-02-10T15:15:03.348Z,1.80
2019-02-10T15:17:31.679Z,1.13
2019-02-10T15:19:59.938Z,1.20
2019-02-10T15:22:28.456Z,1.60
2019-02-10T15:24:56.718Z,1.40
2019-02-10T15:27:25.027Z,1.63
2019-02-10T15:29:53.289Z,2.10
2019-02-10T15:32:21.478Z,1.50
2019-02-10T15:34:49.694Z,1.20
2019-02-10T15:37:17.895Z,1.30
2019-02-10T15:39:46.207Z,1.90
2019-02-10T15:42:14.470Z,1.10
2019-02-10T15:44:42.690Z,1.40
2019-02-10T15:47:11.839Z,1.50
2019-02-10T15:49:40.138Z,1.30
2019-02-10T15:52:08.393Z,1.50
2019-02-10T15:54:36.681Z,1.60
2019-02-10T15:57:05.002Z,1.30
2019-02-10T15:59:33.239Z,1.33
2019-02-10T16:02:01.594Z,1.40
2019-02-10T16:04:29.998Z,1.43
2019-02-10T16:06:58.186Z,1.30
2019-02-10T16:09:26.528Z,1.20
2019-02-10T16:11:54.846Z,1.20
2019-02-10T16:14:23.033Z,1.20
2019-02-10T16:16:51.266Z,1.47
2019-02-10T16:19:19.590Z,1.00
2019-02-10T16:21:47.838Z,1.60
2019-02-10T16:24:16.093Z,1.43
2019-02-10T16:26:44.394Z,1.20
2019-02-10T16:29:12.666Z,1.30
2019-02-10T16:31:40.970Z,1.00
2019-02-10T16:34:10.808Z,1.20
2019-02-10T16:36:39.065Z,1.17
2019-02-10T16:39:09.133Z,1.60
2019-02-10T16:41:37.346Z,0.97
2019-02-10T16:44:05.567Z,0.87
2019-02-10T16:46:33.831Z,1.30
2019-02-10T16:49:02.119Z,1.40
2019-02-10T16:51:30.378Z,1.80
2019-02-10T16:53:58.614Z,2.33
2019-02-10T16:56:26.861Z,1.57
2019-02-10T16:58:55.082Z,1.30
2019-02-10T17:01:23.339Z,1.40
2019-02-10T17:03:51.625Z,0.87
2019-02-10T17:06:19.838Z,1.40
2019-02-10T17:08:48.212Z,0.80
2019-02-10T17:11:16.434Z,0.70
2019-02-10T17:13:44.660Z,1.97
2019-02-10T17:16:12.921Z,1.20
2019-02-10T17:18:41.264Z,1.30
2019-02-10T17:21:09.578Z,0.97
2019-02-10T17:23:38.218Z,1.00
2019-02-10T17:26:06.704Z,1.00
2019-02-10T17:28:34.937Z,0.90
2019-02-10T17:31:03.154Z,1.10
2019-02-10T17:33:31.339Z,0.90
2019-02-10T17:35:59.633Z,1.17
2019-02-10T17:38:27.821Z,1.40
2019-02-10T17:40:58.578Z,4.37
2019-02-10T17:43:28.280Z,5.43
2019-02-10T17:45:56.726Z,1.30
2019-02-10T17:48:24.995Z,1.33
2019-02-10T17:50:53.287Z,0.83
2019-02-10T17:53:21.546Z,1.30
2019-02-10T17:55:49.747Z,0.90
2019-02-10T17:58:18.033Z,0.93
2019-02-10T18:00:48.018Z,0.87
2019-02-10T18:03:16.254Z,0.93
2019-02-10T18:05:44.466Z,1.10
2019-02-10T18:08:12.677Z,0.77
2019-02-10T18:10:40.948Z,0.70
2019-02-10T18:13:10.909Z,0.70
2019-02-10T18:15:52.912Z,0.90
2019-02-10T18:18:31.726Z,0.70
2019-02-10T18:21:01.624Z,0.80
2019-02-10T18:23:47.853Z,0.80
2019-02-10T18:26:36.985Z,0.90
2019-02-10T18:29:07.014Z,0.80
2019-02-10T18:31:36.906Z,0.90
2019-02-10T18:34:07.041Z,0.70
2019-02-10T18:36:42.901Z,0.97
2019-02-10T18:39:18.571Z,0.80
2019-02-10T18:41:51.218Z,1.00
2019-02-10T18:44:21.147Z,1.10
2019-02-10T18:46:59.734Z,1.00
2019-02-10T18:49:35.365Z,0.90
2019-02-10T18:52:08.238Z,0.80
2019-02-10T18:54:44.138Z,0.77
2019-02-10T18:57:19.716Z,0.73
2019-02-10T18:59:58.586Z,0.77
2019-02-10T19:02:28.407Z,0.90
2019-02-10T19:05:10.161Z,0.80
2019-02-10T19:07:48.829Z,1.00
2019-02-10T19:10:18.653Z,1.07
2019-02-10T19:12:51.221Z,0.90
2019-02-10T19:15:23.986Z,1.00
2019-02-10T19:17:53.846Z,0.90
2019-02-10T19:20:41.788Z,0.80
2019-02-10T19:23:14.414Z,14.97
2019-02-10T19:25:44.325Z,1.83
2019-02-10T19:28:16.974Z,1.00
2019-02-10T19:31:02.998Z,0.90
2019-02-10T19:33:38.710Z,1.17
2019-02-10T19:36:11.469Z,0.90
2019-02-10T19:38:44.337Z,0.93
2019-02-10T19:41:14.161Z,1.37
2019-02-10T19:43:56.111Z,0.70
2019-02-10T19:46:26.010Z,0.80
2019-02-10T19:49:14.038Z,1.07
2019-02-10T19:51:43.942Z,1.10
2019-02-10T19:54:13.865Z,0.90
2019-02-10T19:56:59.787Z,1.13
2019-02-10T19:59:33.062Z,1.40
2019-02-10T20:02:20.296Z,1.30
2019-02-10T20:04:56.173Z,0.90
2019-02-10T20:07:29.022Z,1.00
2019-02-10T20:10:01.727Z,0.80
2019-02-10T20:12:31.626Z,1.00
2019-02-10T20:15:04.453Z,1.07
2019-02-10T20:17:34.356Z,0.90
2019-02-10T20:20:04.294Z,0.80
2019-02-10T20:22:49.071Z,0.70
2019-02-10T20:25:27.767Z,0.97
2019-02-10T20:27:57.670Z,0.77
2019-02-10T20:30:36.322Z,0.90
2019-02-10T20:33:12.118Z,0.80
2019-02-10T20:35:47.915Z,0.77
2019-02-10T20:38:29.833Z,0.80
2019-02-10T20:40:59.762Z,0.90
2019-02-10T20:43:29.662Z,0.70
2019-02-10T20:46:08.454Z,0.60
2019-02-10T20:48:56.530Z,0.73
2019-02-10T20:51:41.370Z,0.80
2019-02-10T20:54:11.197Z,1.30
2019-02-10T20:56:47.077Z,0.70
2019-02-10T20:59:22.993Z,0.80
2019-02-10T21:01:55.974Z,0.83
2019-02-10T21:04:25.902Z,0.90
2019-02-10T21:07:11.949Z,1.23
2019-02-10T21:09:59.610Z,0.67
2019-02-10T21:12:35.386Z,0.90
2019-02-10T21:15:05.813Z,0.70
2019-02-10T21:17:41.629Z,0.60
2019-02-10T21:20:11.570Z,0.60
2019-02-10T21:22:56.292Z,0.70
2019-02-10T21:25:28.911Z,0.70
2019-02-10T21:28:11.009Z,0.90
2019-02-10T21:30:59.178Z,0.70
2019-02-10T21:33:32.002Z,0.63
2019-02-10T21:36:04.645Z,0.60
2019-02-10T21:38:50.602Z,0.70
2019-02-10T21:41:35.342Z,0.70
2019-02-10T21:44:16.922Z,0.70
2019-02-10T21:46:49.685Z,0.87
2019-02-10T21:49:18.051Z,0.83
2019-02-10T21:51:46.312Z,0.60
2019-02-10T21:54:14.636Z,0.60
2019-02-10T21:56:43.005Z,0.70
2019-02-10T21:59:11.389Z,0.67
2019-02-10T22:01:39.679Z,0.80
2019-02-10T22:04:07.951Z,0.70
2019-02-10T22:06:36.228Z,0.83
2019-02-10T22:09:04.986Z,0.80
2019-02-10T22:11:34.931Z,0.70
2019-02-10T22:14:03.185Z,0.60
2019-02-10T22:16:31.402Z,0.70
2019-02-10T22:18:59.671Z,0.70
2019-02-10T22:21:27.953Z,0.80
2019-02-10T22:23:56.149Z,0.90
2019-02-10T22:26:24.337Z,0.80
2019-02-10T22:28:52.643Z,0.80
2019-02-10T22:31:20.916Z,0.80
2019-02-10T22:33:51.491Z,0.60
2019-02-10T22:36:19.177Z,0.60
2019-02-10T22:38:47.466Z,0.90
2019-02-10T22:41:15.727Z,0.90
2019-02-10T22:43:44.014Z,0.80
2019-02-10T22:46:12.274Z,0.70
2019-02-10T22:48:40.569Z,0.60
2019-02-10T22:51:10.166Z,0.70
2019-02-10T22:53:38.453Z,0.60
2019-02-10T22:56:06.666Z,0.60
2019-02-10T22:58:34.929Z,0.70
2019-02-10T23:01:03.982Z,0.70
2019-02-10T23:03:32.314Z,0.90
2019-02-10T23:06:00.541Z,0.70
2019-02-10T23:08:28.802Z,0.70
2019-02-10T23:10:57.102Z,0.70
2019-02-10T23:13:25.357Z,0.73
2019-02-10T23:15:53.634Z,0.70
2019-02-10T23:18:21.830Z,1.30
2019-02-10T23:20:50.138Z,0.80
2019-02-10T23:23:18.398Z,0.60
2019-02-10T23:25:46.586Z,0.70
2019-02-10T23:28:14.879Z,1.00
2019-02-10T23:30:43.142Z,1.00
2019-02-10T23:33:11.430Z,0.70
2019-02-10T23:35:39.707Z,0.70
2019-02-10T23:38:07.985Z,0.60
2019-02-10T23:40:36.189Z,0.63
2019-02-10T23:43:04.481Z,0.80
2019-02-10T23:45:32.742Z,0.70
2019-02-10T23:48:01.025Z,0.80
2019-02-10T23:50:29.214Z,0.60
2019-02-10T23:52:57.540Z,0.80
2019-02-10T23:55:25.790Z,0.80
2019-02-10T23:57:54.051Z,0.80
